Kirishima, Japan
Current Conditions -  °F | °C
As of 9:00 PM on Sunday 21 Dec 2014 (Local Time) from RJFK Reporting Station
Broken Clouds Broken Clouds  
Wind Chill: 31°   Ceiling: 4000
Heat Index: 37°   Visibility: 6mi
Dew Point: 32°   Wind: 8mph
Humidity: 81%   Direction: 310°NW
Pressure: 30.09"   Gusts: NA
Location:  31.82°N, 130.77°E
Report Text: RJFK 211200Z 31007KT 9999 FEW015 SCT030 BKN040 03/M00 Q1019 RMK 1CU015 3CU030 5CU040 A3009
Loading
Personal Weather Stations






























Interactive Weather Map New forecast layout! Learn more

10-Day Weather Forecast

Advertisements
Track Severe Weather on mobile